createdAt,value
2018-09-04T00:00:32.218Z,1002.51
2018-09-04T00:01:12.743Z,1002.5
2018-09-04T00:01:53.262Z,1002.55
2018-09-04T00:02:33.775Z,1002.51
2018-09-04T00:03:14.293Z,1002.52
2018-09-04T00:03:54.849Z,1002.5
2018-09-04T00:04:35.346Z,1002.51
2018-09-04T00:05:15.866Z,1002.53
2018-09-04T00:05:56.368Z,1002.53
2018-09-04T00:06:36.998Z,1002.55
2018-09-04T00:07:17.532Z,1002.56
2018-09-04T00:07:58.065Z,1002.56
2018-09-04T00:08:38.553Z,1002.58
2018-09-04T00:09:19.081Z,1002.57
2018-09-04T00:09:59.597Z,1002.55
2018-09-04T00:10:40.129Z,1002.56
2018-09-04T00:11:20.665Z,1002.58
2018-09-04T00:12:01.177Z,1002.58
2018-09-04T00:12:41.704Z,1002.59
2018-09-04T00:13:22.244Z,1002.56
2018-09-04T00:14:02.776Z,1002.58
2018-09-04T00:14:43.295Z,1002.54
2018-09-04T00:15:23.829Z,1002.56
2018-09-04T00:16:04.345Z,1002.55
2018-09-04T00:16:44.872Z,1002.56
2018-09-04T00:17:25.408Z,1002.55
2018-09-04T00:18:06.008Z,1002.52
2018-09-04T00:18:46.526Z,1002.51
2018-09-04T00:19:27.036Z,1002.51
2018-09-04T00:20:07.564Z,1002.53
2018-09-04T00:20:48.092Z,1002.52
2018-09-04T00:21:28.601Z,1002.5
2018-09-04T00:22:09.116Z,1002.56
2018-09-04T00:22:49.636Z,1002.5
2018-09-04T00:23:30.174Z,1002.53
2018-09-04T00:24:10.718Z,1002.5
2018-09-04T00:24:51.239Z,1002.5
2018-09-04T00:25:31.760Z,1002.54
2018-09-04T00:26:12.309Z,1002.55
2018-09-04T00:26:52.817Z,1002.53
2018-09-04T00:27:33.324Z,1002.5
2018-09-04T00:28:13.845Z,1002.48
2018-09-04T00:28:54.366Z,1002.47
2018-09-04T00:29:34.912Z,1002.49
2018-09-04T00:30:15.422Z,1002.54
2018-09-04T00:30:55.936Z,1002.52
2018-09-04T00:31:36.447Z,1002.48
2018-09-04T00:32:16.960Z,1002.5
2018-09-04T00:32:57.469Z,1002.47
2018-09-04T00:33:38.024Z,1002.45
2018-09-04T00:34:18.558Z,1002.5
2018-09-04T00:34:59.074Z,1002.42
2018-09-04T00:35:39.589Z,1002.44
2018-09-04T00:36:20.127Z,1002.43
2018-09-04T00:37:00.668Z,1002.42
2018-09-04T00:37:41.196Z,1002.38
2018-09-04T00:38:21.765Z,1002.44
2018-09-04T00:39:02.295Z,1002.39
2018-09-04T00:39:42.818Z,1002.38
2018-09-04T00:40:23.343Z,1002.37
2018-09-04T00:41:03.856Z,1002.44
2018-09-04T00:41:44.363Z,1002.41
2018-09-04T00:42:24.882Z,1002.42
2018-09-04T00:43:05.402Z,1002.42
2018-09-04T00:43:45.907Z,1002.44
2018-09-04T00:44:26.439Z,1002.43
2018-09-04T00:45:06.967Z,1002.46
2018-09-04T00:45:47.499Z,1002.46
2018-09-04T00:46:28.026Z,1002.45
2018-09-04T00:47:08.570Z,1002.42
2018-09-04T00:47:49.094Z,1002.45
2018-09-04T00:48:29.614Z,1002.46
2018-09-04T00:49:10.149Z,1002.49
2018-09-04T00:49:50.665Z,1002.45
2018-09-04T00:50:31.155Z,1002.5
2018-09-04T00:51:11.839Z,1002.5
2018-09-04T00:51:52.351Z,1002.54
2018-09-04T00:52:32.869Z,1002.53
2018-09-04T00:53:13.381Z,1002.56
2018-09-04T00:53:53.906Z,1002.56
2018-09-04T00:54:34.446Z,1002.51
2018-09-04T00:55:14.971Z,1002.55
2018-09-04T00:55:55.508Z,1002.57
2018-09-04T00:56:36.011Z,1002.59
2018-09-04T00:57:16.540Z,1002.55
2018-09-04T00:57:57.054Z,1002.58
2018-09-04T00:58:37.576Z,1002.57
2018-09-04T00:59:18.091Z,1002.57
2018-09-04T00:59:58.626Z,1002.58
2018-09-04T01:00:39.158Z,1002.58
2018-09-04T01:01:19.674Z,1002.58
2018-09-04T01:02:00.238Z,1002.61
2018-09-04T01:02:40.754Z,1002.64
2018-09-04T01:03:21.279Z,1002.64
2018-09-04T01:04:01.815Z,1002.63
2018-09-04T01:04:42.322Z,1002.65
2018-09-04T01:05:22.849Z,1002.63
2018-09-04T01:06:03.350Z,1002.66
2018-09-04T01:06:43.872Z,1002.61
2018-09-04T01:07:24.386Z,1002.62
2018-09-04T01:08:04.888Z,1002.62
2018-09-04T01:08:45.418Z,1002.68
2018-09-04T01:09:25.951Z,1002.66
2018-09-04T01:10:06.504Z,1002.67
2018-09-04T01:10:47.057Z,1002.66
2018-09-04T01:11:27.723Z,1002.69
2018-09-04T01:12:08.257Z,1002.67
2018-09-04T01:12:48.773Z,1002.65
2018-09-04T01:13:29.298Z,1002.63
2018-09-04T01:14:09.816Z,1002.69
2018-09-04T01:14:50.328Z,1002.64
2018-09-04T01:15:30.854Z,1002.66
2018-09-04T01:16:11.382Z,1002.66
2018-09-04T01:16:51.909Z,1002.66
2018-09-04T01:17:32.414Z,1002.67
2018-09-04T01:18:12.958Z,1002.66
2018-09-04T01:18:53.543Z,1002.67
2018-09-04T01:19:34.054Z,1002.68
2018-09-04T01:20:14.582Z,1002.64
2018-09-04T01:20:55.155Z,1002.69
2018-09-04T01:21:35.639Z,1002.67
2018-09-04T01:22:16.153Z,1002.67
2018-09-04T01:22:56.668Z,1002.62
2018-09-04T01:23:37.185Z,1002.63
2018-09-04T01:24:17.725Z,1002.63
2018-09-04T01:24:58.276Z,1002.65
2018-09-04T01:25:38.816Z,1002.63
2018-09-04T01:26:19.339Z,1002.65
2018-09-04T01:26:59.870Z,1002.66
2018-09-04T01:27:40.396Z,1002.7
2018-09-04T01:28:20.928Z,1002.64
2018-09-04T01:29:01.451Z,1002.67
2018-09-04T01:29:41.965Z,1002.69
2018-09-04T01:30:22.509Z,1002.64
2018-09-04T01:31:03.034Z,1002.68
2018-09-04T01:31:43.545Z,1002.73
2018-09-04T01:32:24.062Z,1002.7
2018-09-04T01:33:04.561Z,1002.7
2018-09-04T01:33:45.087Z,1002.69
2018-09-04T01:34:26.654Z,1002.71
2018-09-04T01:35:07.184Z,1002.72
2018-09-04T01:35:47.703Z,1002.78
2018-09-04T01:36:28.220Z,1002.76
2018-09-04T01:37:08.769Z,1002.75
2018-09-04T01:37:49.299Z,1002.75
2018-09-04T01:38:29.846Z,1002.74
2018-09-04T01:39:10.429Z,1002.79
2018-09-04T01:39:50.948Z,1002.76
2018-09-04T01:40:31.477Z,1002.81
2018-09-04T01:41:12.006Z,1002.79
2018-09-04T01:41:52.549Z,1002.8
2018-09-04T01:42:33.047Z,1002.8
2018-09-04T01:43:13.568Z,1002.81
2018-09-04T01:43:54.107Z,1002.79
2018-09-04T01:44:34.653Z,1002.75
2018-09-04T01:45:15.183Z,1002.73
2018-09-04T01:45:55.727Z,1002.73
2018-09-04T01:46:36.239Z,1002.72
2018-09-04T01:47:16.754Z,1002.72
2018-09-04T01:47:57.266Z,1002.71
2018-09-04T01:48:37.823Z,1002.72
2018-09-04T01:49:18.355Z,1002.71
2018-09-04T01:49:58.914Z,1002.74
2018-09-04T01:50:39.399Z,1002.71
2018-09-04T01:51:19.908Z,1002.7
2018-09-04T01:52:00.435Z,1002.7
2018-09-04T01:52:40.958Z,1002.76
2018-09-04T01:53:21.473Z,1002.74
2018-09-04T01:54:01.995Z,1002.72
2018-09-04T01:54:42.522Z,1002.72
2018-09-04T01:55:23.064Z,1002.66
2018-09-04T01:56:03.579Z,1002.7
2018-09-04T01:56:44.101Z,1002.71
2018-09-04T01:57:24.615Z,1002.68
2018-09-04T01:58:05.150Z,1002.71
2018-09-04T01:58:45.664Z,1002.71
2018-09-04T01:59:26.206Z,1002.74
2018-09-04T02:00:06.749Z,1002.7
2018-09-04T02:00:47.276Z,1002.65
2018-09-04T02:01:27.810Z,1002.7
2018-09-04T02:02:08.360Z,1002.76
2018-09-04T02:02:48.885Z,1002.7
2018-09-04T02:03:29.416Z,1002.71
2018-09-04T02:04:09.935Z,1002.73
2018-09-04T02:04:50.461Z,1002.73
2018-09-04T02:05:30.974Z,1002.65
2018-09-04T02:06:11.507Z,1002.7
2018-09-04T02:06:52.029Z,1002.72
2018-09-04T02:07:32.544Z,1002.72
2018-09-04T02:08:13.064Z,1002.73
2018-09-04T02:08:53.609Z,1002.69
2018-09-04T02:09:34.156Z,1002.74
2018-09-04T02:10:14.677Z,1002.73
2018-09-04T02:10:55.180Z,1002.73
2018-09-04T02:11:35.702Z,1002.68
2018-09-04T02:12:16.241Z,1002.71
2018-09-04T02:12:56.773Z,1002.73
2018-09-04T02:13:37.278Z,1002.67
2018-09-04T02:14:17.790Z,1002.72
2018-09-04T02:14:58.317Z,1002.7
2018-09-04T02:15:38.840Z,1002.72
2018-09-04T02:16:19.369Z,1002.68
2018-09-04T02:16:59.890Z,1002.7
2018-09-04T02:17:40.406Z,1002.69
2018-09-04T02:18:20.923Z,1002.72
2018-09-04T02:19:01.468Z,1002.69
2018-09-04T02:19:41.988Z,1002.67
2018-09-04T02:20:22.501Z,1002.76
2018-09-04T02:21:03.040Z,1002.72
2018-09-04T02:21:43.564Z,1002.72
2018-09-04T02:22:24.099Z,1002.74
2018-09-04T02:23:04.604Z,1002.73
2018-09-04T02:23:45.138Z,1002.75
2018-09-04T02:24:25.659Z,1002.78
2018-09-04T02:25:06.161Z,1002.8
2018-09-04T02:25:46.680Z,1002.76
2018-09-04T02:26:27.198Z,1002.83
2018-09-04T02:27:07.711Z,1002.81
2018-09-04T02:27:48.239Z,1002.83
2018-09-04T02:28:28.795Z,1002.83
2018-09-04T02:29:09.327Z,1002.79
2018-09-04T02:29:49.850Z,1002.83
2018-09-04T02:30:30.376Z,1002.82
2018-09-04T02:31:10.891Z,1002.83
2018-09-04T02:31:51.412Z,1002.78
2018-09-04T02:32:31.934Z,1002.84
2018-09-04T02:33:12.630Z,1002.81
2018-09-04T02:33:52.986Z,1002.81
2018-09-04T02:34:33.529Z,1002.81
2018-09-04T02:35:14.054Z,1002.8
2018-09-04T02:35:54.573Z,1002.81
2018-09-04T02:36:35.095Z,1002.78
2018-09-04T02:37:15.612Z,1002.82
2018-09-04T02:37:56.886Z,1002.82
2018-09-04T02:38:37.427Z,1002.84
2018-09-04T02:39:17.959Z,1002.85
2018-09-04T02:39:58.483Z,1002.86
2018-09-04T02:40:39.008Z,1002.82
2018-09-04T02:41:19.526Z,1002.87
2018-09-04T02:42:00.069Z,1002.84
2018-09-04T02:42:40.592Z,1002.86
2018-09-04T02:43:21.111Z,1002.83
2018-09-04T02:44:01.629Z,1002.86
2018-09-04T02:44:42.138Z,1002.86
2018-09-04T02:45:22.652Z,1002.91
2018-09-04T02:46:03.176Z,1002.89
2018-09-04T02:46:43.690Z,1002.9
2018-09-04T02:47:24.221Z,1002.85
2018-09-04T02:48:04.733Z,1002.83
2018-09-04T02:48:45.254Z,1002.86
2018-09-04T02:49:25.782Z,1002.89
2018-09-04T02:50:06.493Z,1002.85
2018-09-04T02:50:47.015Z,1002.88
2018-09-04T02:51:27.552Z,1002.88
2018-09-04T02:52:08.085Z,1002.91
2018-09-04T02:52:48.595Z,1002.86
2018-09-04T02:53:29.114Z,1002.85
2018-09-04T02:54:09.628Z,1002.84
2018-09-04T02:54:50.139Z,1002.82
2018-09-04T02:55:30.650Z,1002.81
2018-09-04T02:56:11.182Z,1002.82
2018-09-04T02:56:51.692Z,1002.83
2018-09-04T02:57:32.188Z,1002.84
2018-09-04T02:58:12.731Z,1002.83
2018-09-04T02:58:53.254Z,1002.77
2018-09-04T02:59:33.778Z,1002.83
2018-09-04T03:00:14.293Z,1002.86
2018-09-04T03:00:54.803Z,1002.84
2018-09-04T03:01:35.330Z,1002.83
2018-09-04T03:02:15.836Z,1002.85
2018-09-04T03:02:56.399Z,1002.86
2018-09-04T03:03:36.888Z,1002.85
2018-09-04T03:04:17.412Z,1002.84
2018-09-04T03:04:57.977Z,1002.91
2018-09-04T03:05:38.454Z,1002.83
2018-09-04T03:06:18.976Z,1002.92
2018-09-04T03:06:59.531Z,1002.9
2018-09-04T03:07:40.053Z,1002.89
2018-09-04T03:08:20.569Z,1002.87
2018-09-04T03:09:01.140Z,1002.92
2018-09-04T03:09:41.612Z,1002.89
2018-09-04T03:10:22.133Z,1002.89
2018-09-04T03:11:02.647Z,1002.87
2018-09-04T03:11:43.174Z,1002.84
2018-09-04T03:12:23.686Z,1002.83
2018-09-04T03:13:04.199Z,1002.82
2018-09-04T03:13:44.786Z,1002.82
2018-09-04T03:14:25.245Z,1002.83
2018-09-04T03:15:05.755Z,1002.8
2018-09-04T03:15:46.267Z,1002.8
2018-09-04T03:16:26.935Z,1002.81
2018-09-04T03:17:07.374Z,1002.83
2018-09-04T03:17:47.894Z,1002.82
2018-09-04T03:18:29.041Z,1002.85
2018-09-04T03:19:09.524Z,1002.85
2018-09-04T03:19:50.042Z,1002.83
2018-09-04T03:20:30.555Z,1002.86
2018-09-04T03:21:11.069Z,1002.84
2018-09-04T03:21:51.596Z,1002.86
2018-09-04T03:22:32.144Z,1002.94
2018-09-04T03:23:12.751Z,1002.89
2018-09-04T03:23:53.175Z,1002.9
2018-09-04T03:24:33.734Z,1002.94
2018-09-04T03:25:14.273Z,1002.93
2018-09-04T03:25:54.798Z,1002.96
2018-09-04T03:26:35.333Z,1002.92
2018-09-04T03:27:15.864Z,1002.94
2018-09-04T03:27:56.413Z,1002.96
2018-09-04T03:28:36.887Z,1002.95
2018-09-04T03:29:17.416Z,1002.94
2018-09-04T03:29:57.976Z,1002.93
2018-09-04T03:30:38.497Z,1002.95
2018-09-04T03:31:19.018Z,1002.94
2018-09-04T03:31:59.530Z,1002.95
2018-09-04T03:32:40.047Z,1002.93
2018-09-04T03:33:20.566Z,1002.92
2018-09-04T03:34:01.094Z,1002.97
2018-09-04T03:34:41.618Z,1002.95
2018-09-04T03:35:22.125Z,1002.95
2018-09-04T03:36:02.636Z,1002.98
2018-09-04T03:36:43.157Z,1002.9
2018-09-04T03:37:23.677Z,1003
2018-09-04T03:38:04.191Z,1002.93
2018-09-04T03:38:44.729Z,1002.94
2018-09-04T03:39:25.238Z,1002.95
2018-09-04T03:40:05.763Z,1002.98
2018-09-04T03:40:46.266Z,1002.97
2018-09-04T03:41:27.755Z,1002.96
2018-09-04T03:42:08.285Z,1002.97
2018-09-04T03:42:49.127Z,1002.98
2018-09-04T03:43:29.667Z,1002.97
2018-09-04T03:44:10.232Z,1002.92
2018-09-04T03:44:50.729Z,1002.95
2018-09-04T03:45:31.248Z,1002.96
2018-09-04T03:46:11.861Z,1002.99
2018-09-04T03:46:52.389Z,1003
2018-09-04T03:47:32.914Z,1002.98
2018-09-04T03:48:13.432Z,1002.96
2018-09-04T03:50:11.892Z,1003.02
2018-09-04T03:50:52.426Z,1003.01
2018-09-04T03:51:32.916Z,1003.03
2018-09-04T03:52:13.533Z,1002.98
2018-09-04T03:52:54.218Z,1002.95
2018-09-04T03:53:34.781Z,1002.94
2018-09-04T03:54:15.302Z,1002.98
2018-09-04T03:54:55.822Z,1002.99
2018-09-04T03:57:14.203Z,1002.95
2018-09-04T03:57:54.715Z,1002.95
2018-09-04T03:58:35.241Z,1002.99
2018-09-04T03:59:15.768Z,1002.92
2018-09-04T03:59:56.290Z,1002.96
2018-09-04T04:00:36.804Z,1002.94
2018-09-04T04:01:17.385Z,1002.97
2018-09-04T04:01:57.831Z,1002.95
2018-09-04T04:02:38.361Z,1002.94
2018-09-04T04:03:18.897Z,1002.93
2018-09-04T04:03:59.422Z,1002.97
2018-09-04T04:04:39.934Z,1002.96
2018-09-04T04:05:20.573Z,1002.96
2018-09-04T04:06:01.097Z,1002.97
2018-09-04T04:06:41.608Z,1002.96
2018-09-04T04:07:22.126Z,1003
2018-09-04T04:08:02.661Z,1002.98
2018-09-04T04:08:43.172Z,1002.97
2018-09-04T04:09:23.683Z,1002.97
2018-09-04T04:10:04.194Z,1002.99
2018-09-04T04:10:44.721Z,1003.01
2018-09-04T04:11:25.254Z,1002.96
2018-09-04T04:12:05.839Z,1003.02
2018-09-04T04:12:46.343Z,1002.96
2018-09-04T04:15:00.295Z,1003.01
2018-09-04T04:15:40.804Z,1002.99
2018-09-04T04:16:21.335Z,1003.01
2018-09-04T04:17:01.833Z,1003.02
2018-09-04T04:17:42.351Z,1003
2018-09-04T04:18:22.872Z,1003.02
2018-09-04T04:19:03.390Z,1003.03
2018-09-04T04:19:43.902Z,1003.04
2018-09-04T04:20:24.417Z,1003.03
2018-09-04T04:21:04.942Z,1003.06
2018-09-04T04:21:45.443Z,1003.05
2018-09-04T04:22:25.976Z,1003.07
2018-09-04T04:23:06.500Z,1003.09
2018-09-04T04:23:47.096Z,1003.06
2018-09-04T04:24:27.522Z,1003.09
2018-09-04T04:25:08.028Z,1003.07
2018-09-04T04:25:48.551Z,1003.06
2018-09-04T04:26:29.208Z,1003.12
2018-09-04T04:27:09.740Z,1003.11
2018-09-04T04:27:50.253Z,1003.1
2018-09-04T04:28:30.772Z,1003.1
2018-09-04T04:29:11.285Z,1003.11
2018-09-04T04:29:51.796Z,1003.11
2018-09-04T04:30:32.322Z,1003.11
2018-09-04T04:31:12.854Z,1003.09
2018-09-04T04:31:53.374Z,1003.12
2018-09-04T04:32:33.898Z,1003.14
2018-09-04T04:33:14.539Z,1003.12
2018-09-04T04:33:54.955Z,1003.16
2018-09-04T04:34:35.465Z,1003.14
2018-09-04T04:35:15.986Z,1003.14
2018-09-04T04:35:56.564Z,1003.16
2018-09-04T04:36:37.056Z,1003.14
2018-09-04T04:37:17.594Z,1003.18
2018-09-04T04:37:58.119Z,1003.18
2018-09-04T04:38:38.612Z,1003.16
2018-09-04T04:39:19.128Z,1003.16
2018-09-04T04:39:59.683Z,1003.17
2018-09-04T04:40:40.158Z,1003.1
2018-09-04T04:41:20.668Z,1003.18
2018-09-04T04:42:01.198Z,1003.16
2018-09-04T04:42:41.718Z,1003.17
2018-09-04T04:43:22.250Z,1003.16
2018-09-04T04:44:02.765Z,1003.15
2018-09-04T04:44:43.276Z,1003.15
2018-09-04T04:45:23.841Z,1003.14
2018-09-04T04:46:04.313Z,1003.18
2018-09-04T04:46:44.833Z,1003.18
2018-09-04T04:47:25.379Z,1003.21
2018-09-04T04:48:05.933Z,1003.19
2018-09-04T04:48:46.413Z,1003.2
2018-09-04T04:49:26.941Z,1003.2
2018-09-04T04:50:07.534Z,1003.19
2018-09-04T04:50:48.055Z,1003.22
2018-09-04T04:51:28.585Z,1003.19
2018-09-04T04:52:09.327Z,1003.16
2018-09-04T04:52:49.845Z,1003.19
2018-09-04T04:53:30.366Z,1003.22
2018-09-04T04:54:10.892Z,1003.22
2018-09-04T04:54:51.413Z,1003.19
2018-09-04T04:55:31.940Z,1003.19
2018-09-04T04:56:12.470Z,1003.18
2018-09-04T04:56:52.976Z,1003.2
2018-09-04T04:57:33.543Z,1003.2
2018-09-04T04:58:14.074Z,1003.21
2018-09-04T04:58:54.566Z,1003.22
2018-09-04T04:59:35.093Z,1003.18
2018-09-04T05:00:15.656Z,1003.19
2018-09-04T05:00:56.137Z,1003.23
2018-09-04T05:01:36.651Z,1003.2
2018-09-04T05:02:17.200Z,1003.21
2018-09-04T05:02:57.719Z,1003.25
2018-09-04T05:03:38.208Z,1003.23
2018-09-04T05:04:18.721Z,1003.2
2018-09-04T05:04:59.239Z,1003.24
2018-09-04T05:05:40.063Z,1003.24
2018-09-04T05:06:20.622Z,1003.25
2018-09-04T05:07:01.134Z,1003.26
2018-09-04T05:07:41.668Z,1003.2
2018-09-04T05:08:22.193Z,1003.24
2018-09-04T05:09:02.728Z,1003.21
2018-09-04T05:09:43.523Z,1003.25
2018-09-04T05:10:24.041Z,1003.24
2018-09-04T05:11:04.598Z,1003.26
2018-09-04T05:11:45.068Z,1003.28
2018-09-04T05:12:25.584Z,1003.27
2018-09-04T05:13:06.119Z,1003.29
2018-09-04T05:13:46.633Z,1003.26
2018-09-04T05:14:27.182Z,1003.29
2018-09-04T05:15:07.712Z,1003.29
2018-09-04T05:15:48.225Z,1003.33
2018-09-04T05:16:28.746Z,1003.31
2018-09-04T05:17:09.251Z,1003.34
2018-09-04T05:17:49.767Z,1003.35
2018-09-04T05:18:30.284Z,1003.39
2018-09-04T05:19:10.802Z,1003.37
2018-09-04T05:19:51.314Z,1003.37
2018-09-04T05:20:31.831Z,1003.4
2018-09-04T05:21:12.438Z,1003.4
2018-09-04T05:21:52.958Z,1003.4
2018-09-04T05:22:33.562Z,1003.39
2018-09-04T05:23:14.036Z,1003.41
2018-09-04T05:23:54.546Z,1003.43
2018-09-04T05:24:35.072Z,1003.39
2018-09-04T05:25:15.580Z,1003.48
2018-09-04T05:25:56.100Z,1003.49
2018-09-04T05:26:36.622Z,1003.45
2018-09-04T05:27:17.173Z,1003.47
2018-09-04T05:27:57.736Z,1003.44
2018-09-04T05:28:38.220Z,1003.37
2018-09-04T05:29:18.788Z,1003.37
2018-09-04T05:29:59.272Z,1003.4
2018-09-04T05:30:39.809Z,1003.4
2018-09-04T05:31:20.333Z,1003.39
2018-09-04T05:32:00.851Z,1003.41
2018-09-04T05:32:41.364Z,1003.42
2018-09-04T05:33:21.896Z,1003.43
2018-09-04T05:34:02.425Z,1003.44
2018-09-04T05:34:42.940Z,1003.41
2018-09-04T05:35:23.458Z,1003.43
2018-09-04T05:36:03.981Z,1003.41
2018-09-04T05:36:44.490Z,1003.41
2018-09-04T05:37:24.991Z,1003.45
2018-09-04T05:38:05.526Z,1003.42
2018-09-04T05:38:46.043Z,1003.45
2018-09-04T05:39:26.560Z,1003.44
2018-09-04T05:40:07.084Z,1003.48
2018-09-04T05:40:47.617Z,1003.46
2018-09-04T05:41:28.745Z,1003.51
2018-09-04T05:42:09.348Z,1003.44
2018-09-04T05:42:49.806Z,1003.46
2018-09-04T05:43:30.329Z,1003.48
2018-09-04T05:44:10.855Z,1003.53
2018-09-04T05:44:51.356Z,1003.5
2018-09-04T05:45:31.882Z,1003.55
2018-09-04T05:46:12.405Z,1003.55
2018-09-04T05:46:52.925Z,1003.56
2018-09-04T05:47:33.441Z,1003.56
2018-09-04T05:48:13.970Z,1003.61
2018-09-04T05:48:54.481Z,1003.62
2018-09-04T05:49:35.021Z,1003.6
2018-09-04T05:50:15.549Z,1003.61
2018-09-04T05:50:56.063Z,1003.63
2018-09-04T05:51:36.578Z,1003.64
2018-09-04T05:52:17.136Z,1003.66
2018-09-04T05:52:57.692Z,1003.71
2018-09-04T05:53:38.243Z,1003.64
2018-09-04T05:54:18.806Z,1003.64
2018-09-04T05:54:59.330Z,1003.67
2018-09-04T05:55:39.890Z,1003.68
2018-09-04T05:56:20.491Z,1003.71
2018-09-04T05:57:01.038Z,1003.74
2018-09-04T05:57:41.572Z,1003.73
2018-09-04T05:58:22.089Z,1003.77
2018-09-04T05:59:02.620Z,1003.77
2018-09-04T05:59:43.119Z,1003.81
2018-09-04T06:00:23.641Z,1003.77
2018-09-04T06:01:04.161Z,1003.77
2018-09-04T06:01:44.671Z,1003.79
2018-09-04T06:02:25.178Z,1003.84
2018-09-04T06:03:05.724Z,1003.83
2018-09-04T06:03:46.245Z,1003.83
2018-09-04T06:04:26.748Z,1003.85
2018-09-04T06:05:07.458Z,1003.84
2018-09-04T06:05:47.962Z,1003.84
2018-09-04T06:06:28.470Z,1003.78
2018-09-04T06:07:08.991Z,1003.82
2018-09-04T06:07:49.505Z,1003.81
2018-09-04T06:08:30.189Z,1003.81
2018-09-04T06:09:10.720Z,1003.75
2018-09-04T06:09:51.233Z,1003.78
2018-09-04T06:10:31.743Z,1003.79
2018-09-04T06:11:12.266Z,1003.75
2018-09-04T06:11:52.849Z,1003.79
2018-09-04T06:12:33.492Z,1003.79
2018-09-04T06:13:14.023Z,1003.75
2018-09-04T06:13:54.521Z,1003.76
2018-09-04T06:14:35.029Z,1003.78
2018-09-04T06:15:15.593Z,1003.73
2018-09-04T06:15:56.123Z,1003.72
2018-09-04T06:16:36.666Z,1003.73
2018-09-04T06:17:17.186Z,1003.72
2018-09-04T06:17:57.775Z,1003.72
2018-09-04T06:18:38.268Z,1003.74
2018-09-04T06:19:18.806Z,1003.77
2018-09-04T06:19:59.460Z,1003.79
2018-09-04T06:20:39.929Z,1003.73
2018-09-04T06:21:20.472Z,1003.74
2018-09-04T06:22:00.995Z,1003.75
2018-09-04T06:22:41.512Z,1003.76
2018-09-04T06:23:22.032Z,1003.74
2018-09-04T06:24:02.571Z,1003.75
2018-09-04T06:24:43.126Z,1003.76
2018-09-04T06:25:23.636Z,1003.73
2018-09-04T06:26:04.172Z,1003.72
2018-09-04T06:26:44.685Z,1003.73
2018-09-04T06:27:25.239Z,1003.73
2018-09-04T06:28:05.776Z,1003.76
2018-09-04T06:28:46.291Z,1003.8
2018-09-04T06:29:26.886Z,1003.74
2018-09-04T06:30:07.379Z,1003.79
2018-09-04T06:30:47.921Z,1003.83
2018-09-04T06:31:28.424Z,1003.77
2018-09-04T06:32:09.061Z,1003.79
2018-09-04T06:32:49.515Z,1003.78
2018-09-04T06:33:30.015Z,1003.82
2018-09-04T06:34:10.652Z,1003.82
2018-09-04T06:34:51.109Z,1003.83
2018-09-04T06:35:31.656Z,1003.84
2018-09-04T06:36:12.166Z,1003.86
2018-09-04T06:36:52.676Z,1003.86
2018-09-04T06:37:33.317Z,1003.85
2018-09-04T06:38:13.863Z,1003.83
2018-09-04T06:38:54.409Z,1003.86
2018-09-04T06:39:35.021Z,1003.87
2018-09-04T06:40:15.553Z,1003.88
2018-09-04T06:40:56.089Z,1003.84
2018-09-04T06:41:36.606Z,1003.84
2018-09-04T06:42:17.146Z,1003.8
2018-09-04T06:42:59.404Z,1003.84
2018-09-04T06:43:39.928Z,1003.85
2018-09-04T06:44:20.471Z,1003.84
2018-09-04T06:45:01.012Z,1003.83
2018-09-04T06:45:41.529Z,1003.85
2018-09-04T06:46:22.095Z,1003.86
2018-09-04T06:47:02.577Z,1003.85
2018-09-04T06:47:43.150Z,1003.81
2018-09-04T06:48:23.661Z,1003.87
2018-09-04T06:49:04.206Z,1003.85
2018-09-04T06:49:44.734Z,1003.78
2018-09-04T06:50:25.257Z,1003.82
2018-09-04T06:51:05.779Z,1003.81
2018-09-04T06:51:46.281Z,1003.82
2018-09-04T06:52:26.790Z,1003.83
2018-09-04T06:53:07.311Z,1003.82
2018-09-04T06:53:47.820Z,1003.85
2018-09-04T06:54:28.387Z,1003.87
2018-09-04T06:55:08.886Z,1003.85
2018-09-04T06:55:49.398Z,1003.85
2018-09-04T06:56:29.936Z,1003.85
2018-09-04T06:57:10.464Z,1003.86
2018-09-04T06:57:51.008Z,1003.84
2018-09-04T06:58:31.508Z,1003.87
2018-09-04T06:59:12.028Z,1003.85
2018-09-04T06:59:52.568Z,1003.91
2018-09-04T07:01:45.643Z,1003.89
2018-09-04T07:02:26.185Z,1003.86
2018-09-04T07:03:06.687Z,1003.84
2018-09-04T07:03:47.206Z,1003.83
2018-09-04T07:04:27.738Z,1003.83
2018-09-04T07:05:08.252Z,1003.85
2018-09-04T07:05:48.800Z,1003.87
2018-09-04T07:06:29.327Z,1003.8
2018-09-04T07:07:09.850Z,1003.84
2018-09-04T07:07:50.361Z,1003.88
2018-09-04T07:08:30.910Z,1003.82
2018-09-04T07:09:11.440Z,1003.83
2018-09-04T07:09:51.969Z,1003.82
2018-09-04T07:10:32.494Z,1003.82
2018-09-04T07:11:13.015Z,1003.82
2018-09-04T07:11:53.536Z,1003.9
2018-09-04T07:12:34.057Z,1003.87
2018-09-04T07:13:14.566Z,1003.86
2018-09-04T07:13:55.075Z,1003.85
2018-09-04T07:14:36.098Z,1003.86
2018-09-04T07:15:16.616Z,1003.81
2018-09-04T07:15:57.158Z,1003.79
2018-09-04T07:16:37.698Z,1003.84
2018-09-04T07:17:18.222Z,1003.81
2018-09-04T07:17:58.773Z,1003.81
2018-09-04T07:18:39.277Z,1003.79
2018-09-04T07:19:19.793Z,1003.83
2018-09-04T07:20:00.324Z,1003.79
2018-09-04T07:20:40.830Z,1003.87
2018-09-04T07:21:21.349Z,1003.86
2018-09-04T07:22:01.889Z,1003.84
2018-09-04T07:22:42.379Z,1003.79
2018-09-04T07:23:22.912Z,1003.81
2018-09-04T07:24:03.535Z,1003.79
2018-09-04T07:24:43.960Z,1003.83
2018-09-04T07:25:24.487Z,1003.85
2018-09-04T07:26:05.025Z,1003.85
2018-09-04T07:26:45.589Z,1003.87
2018-09-04T07:27:26.116Z,1003.89
2018-09-04T07:28:06.662Z,1003.91
2018-09-04T07:28:47.189Z,1003.92
2018-09-04T07:29:27.697Z,1003.93
2018-09-04T07:30:08.276Z,1003.91
2018-09-04T07:30:48.826Z,1003.92
2018-09-04T07:33:17.326Z,1003.91
2018-09-04T07:33:57.855Z,1003.88
2018-09-04T07:34:38.356Z,1003.91
2018-09-04T07:35:18.870Z,1003.92
2018-09-04T07:35:59.404Z,1003.89
2018-09-04T07:36:39.936Z,1003.93
2018-09-04T07:37:20.461Z,1003.91
2018-09-04T07:38:01.021Z,1003.93
2018-09-04T07:38:41.534Z,1003.92
2018-09-04T07:39:22.052Z,1003.9
2018-09-04T07:40:02.569Z,1003.84
2018-09-04T07:40:43.092Z,1003.93
2018-09-04T07:41:23.617Z,1003.9
2018-09-04T07:42:04.227Z,1003.87
2018-09-04T07:42:44.663Z,1003.9
2018-09-04T07:43:25.177Z,1003.88
2018-09-04T07:44:05.710Z,1003.86
2018-09-04T07:44:46.223Z,1003.85
2018-09-04T07:45:26.742Z,1003.83
2018-09-04T07:46:07.257Z,1003.86
2018-09-04T07:46:47.787Z,1003.82
2018-09-04T07:47:28.368Z,1003.82
2018-09-04T07:48:08.863Z,1003.81
2018-09-04T07:48:49.400Z,1003.77
2018-09-04T07:49:29.984Z,1003.81
2018-09-04T07:50:10.508Z,1003.75
2018-09-04T07:50:51.059Z,1003.76
2018-09-04T07:51:31.607Z,1003.76
2018-09-04T07:52:12.151Z,1003.77
2018-09-04T07:52:52.662Z,1003.78
2018-09-04T07:53:33.213Z,1003.81
2018-09-04T07:54:13.702Z,1003.75
2018-09-04T07:54:54.250Z,1003.77
2018-09-04T07:55:35.002Z,1003.77
2018-09-04T07:56:15.541Z,1003.75
2018-09-04T07:56:56.081Z,1003.74
2018-09-04T07:57:36.613Z,1003.7
2018-09-04T07:58:17.137Z,1003.71
2018-09-04T07:58:57.665Z,1003.71
2018-09-04T07:59:38.181Z,1003.69
2018-09-04T08:00:18.720Z,1003.68
2018-09-04T08:00:59.286Z,1003.69
2018-09-04T08:01:39.862Z,1003.7
2018-09-04T08:02:20.379Z,1003.7
2018-09-04T08:03:00.879Z,1003.69
2018-09-04T08:03:41.391Z,1003.69
2018-09-04T08:04:21.924Z,1003.7
2018-09-04T08:05:02.434Z,1003.69
2018-09-04T08:05:43.169Z,1003.72
2018-09-04T08:06:23.739Z,1003.7
2018-09-04T08:07:04.264Z,1003.68
2018-09-04T08:07:44.774Z,1003.73
2018-09-04T08:08:25.440Z,1003.68
2018-09-04T08:09:05.977Z,1003.7
2018-09-04T08:09:46.529Z,1003.74
2018-09-04T08:10:27.049Z,1003.74
2018-09-04T08:11:07.644Z,1003.72
2018-09-04T08:11:48.161Z,1003.74
2018-09-04T08:12:28.714Z,1003.68
2018-09-04T08:13:09.226Z,1003.75
2018-09-04T08:13:49.764Z,1003.72
2018-09-04T08:14:30.340Z,1003.68
2018-09-04T08:15:10.871Z,1003.71
2018-09-04T08:15:51.431Z,1003.76
2018-09-04T08:16:31.965Z,1003.74
2018-09-04T08:17:12.476Z,1003.73
2018-09-04T08:17:53.472Z,1003.75
2018-09-04T08:18:34.026Z,1003.72
2018-09-04T08:19:14.547Z,1003.73
2018-09-04T08:19:55.071Z,1003.73